sensor_id;sensor_type;location;lat;lon;timestamp;pressure;altitude;pressure_sealevel;temperature;humidity
69842;BME280;57138;51.326;-0.068;2022-12-11T00:00:13;99148.28;;;-3.53;95.91
69842;BME280;57138;51.326;-0.068;2022-12-11T00:02:42;99091.50;;;-3.84;96.16
69842;BME280;57138;51.326;-0.068;2022-12-11T00:05:10;99121.47;;;-3.67;95.91
69842;BME280;57138;51.326;-0.068;2022-12-11T00:07:38;99141.63;;;-3.57;96.13
69842;BME280;57138;51.326;-0.068;2022-12-11T00:10:06;99111.28;;;-3.70;96.85
69842;BME280;57138;51.326;-0.068;2022-12-11T00:12:33;99118.16;;;-3.69;96.90
69842;BME280;57138;51.326;-0.068;2022-12-11T00:14:59;99063.44;;;-4.03;96.84
69842;BME280;57138;51.326;-0.068;2022-12-11T00:17:25;99126.69;;;-3.67;95.94
69842;BME280;57138;51.326;-0.068;2022-12-11T00:19:51;99128.94;;;-3.62;96.53
69842;BME280;57138;51.326;-0.068;2022-12-11T00:22:17;99089.97;;;-3.86;96.51
69842;BME280;57138;51.326;-0.068;2022-12-11T00:24:42;99089.00;;;-3.85;96.27
69842;BME280;57138;51.326;-0.068;2022-12-11T00:27:08;99102.28;;;-3.77;96.06
69842;BME280;57138;51.326;-0.068;2022-12-11T00:29:34;99127.66;;;-3.68;95.78
69842;BME280;57138;51.326;-0.068;2022-12-11T00:32:00;99103.50;;;-3.81;96.09
69842;BME280;57138;51.326;-0.068;2022-12-11T00:34:27;99121.72;;;-3.70;96.28
69842;BME280;57138;51.326;-0.068;2022-12-11T00:36:53;99073.63;;;-4.00;95.71
69842;BME280;57138;51.326;-0.068;2022-12-11T00:39:19;99105.72;;;-3.76;95.99
69842;BME280;57138;51.326;-0.068;2022-12-11T00:41:45;99106.78;;;-3.79;96.05
69842;BME280;57138;51.326;-0.068;2022-12-11T00:44:12;99121.72;;;-3.70;95.85
69842;BME280;57138;51.326;-0.068;2022-12-11T00:46:39;99077.28;;;-3.91;96.45
69842;BME280;57138;51.326;-0.068;2022-12-11T00:49:05;99104.91;;;-3.77;95.61
69842;BME280;57138;51.326;-0.068;2022-12-11T00:51:33;99059.28;;;-4.05;96.04
69842;BME280;57138;51.326;-0.068;2022-12-11T00:53:59;99114.38;;;-3.76;96.31
69842;BME280;57138;51.326;-0.068;2022-12-11T00:56:27;99110.94;;;-3.76;96.23
69842;BME280;57138;51.326;-0.068;2022-12-11T00:58:54;99115.34;;;-3.77;96.20
69842;BME280;57138;51.326;-0.068;2022-12-11T01:01:23;99117.25;;;-3.79;96.73
69842;BME280;57138;51.326;-0.068;2022-12-11T01:03:52;99103.50;;;-3.81;96.09
69842;BME280;57138;51.326;-0.068;2022-12-11T01:06:21;99110.63;;;-3.83;95.86
69842;BME280;57138;51.326;-0.068;2022-12-11T01:08:48;99079.44;;;-3.96;96.05
69842;BME280;57138;51.326;-0.068;2022-12-11T01:11:35;99101.13;;;-3.84;96.78
69842;BME280;57138;51.326;-0.068;2022-12-11T01:14:04;99099.22;;;-3.82;96.11
69842;BME280;57138;51.326;-0.068;2022-12-11T01:16:39;99086.41;;;-3.85;96.67
69842;BME280;57138;51.326;-0.068;2022-12-11T01:19:05;99087.00;;;-3.82;96.15
69842;BME280;57138;51.326;-0.068;2022-12-11T01:21:31;99085.19;;;-3.81;96.24
69842;BME280;57138;51.326;-0.068;2022-12-11T01:24:08;99084.75;;;-3.86;95.73
69842;BME280;57138;51.326;-0.068;2022-12-11T01:26:34;99087.13;;;-3.83;96.15
69842;BME280;57138;51.326;-0.068;2022-12-11T01:29:00;99071.94;;;-3.89;96.23
69842;BME280;57138;51.326;-0.068;2022-12-11T01:31:25;99077.16;;;-3.89;95.96
69842;BME280;57138;51.326;-0.068;2022-12-11T01:33:55;99086.16;;;-3.82;96.43
69842;BME280;57138;51.326;-0.068;2022-12-11T01:36:23;99062.13;;;-3.97;96.21
69842;BME280;57138;51.326;-0.068;2022-12-11T01:38:50;99079.97;;;-3.81;95.97
69842;BME280;57138;51.326;-0.068;2022-12-11T01:46:56;99084.75;;;-3.86;96.77
69842;BME280;57138;51.326;-0.068;2022-12-11T01:49:35;99084.75;;;-3.86;96.31
69842;BME280;57138;51.326;-0.068;2022-12-11T01:52:12;99086.66;;;-3.88;96.95
69842;BME280;57138;51.326;-0.068;2022-12-11T01:54:42;99092.84;;;-3.89;95.91
69842;BME280;57138;51.326;-0.068;2022-12-11T01:57:08;99057.78;;;-4.19;95.88
69842;BME280;57138;51.326;-0.068;2022-12-11T01:59:38;99064.28;;;-4.13;96.42
69842;BME280;57138;51.326;-0.068;2022-12-11T02:02:18;99083.81;;;-3.97;96.66
69842;BME280;57138;51.326;-0.068;2022-12-11T02:04:45;99059.19;;;-4.15;96.23
69842;BME280;57138;51.326;-0.068;2022-12-11T02:07:11;99055.91;;;-4.17;96.26
69842;BME280;57138;51.326;-0.068;2022-12-11T02:09:38;99054.22;;;-4.18;96.56
69842;BME280;57138;51.326;-0.068;2022-12-11T02:12:23;99097.59;;;-3.94;95.97
69842;BME280;57138;51.326;-0.068;2022-12-11T02:20:21;99086.72;;;-4.11;95.80
69842;BME280;57138;51.326;-0.068;2022-12-11T02:25:38;99079.03;;;-4.12;95.89
69842;BME280;57138;51.326;-0.068;2022-12-11T02:30:57;99100.81;;;-4.02;95.81
69842;BME280;57138;51.326;-0.068;2022-12-11T02:33:33;99093.94;;;-4.03;96.42
69842;BME280;57138;51.326;-0.068;2022-12-11T02:36:02;99056.88;;;-4.29;96.29
69842;BME280;57138;51.326;-0.068;2022-12-11T02:38:32;99085.88;;;-4.11;96.61
69842;BME280;57138;51.326;-0.068;2022-12-11T02:40:59;99093.47;;;-4.08;96.07
69842;BME280;57138;51.326;-0.068;2022-12-11T02:43:29;99096.94;;;-4.08;96.10
69842;BME280;57138;51.326;-0.068;2022-12-11T02:45:57;99090.03;;;-4.09;95.64
69842;BME280;57138;51.326;-0.068;2022-12-11T02:48:23;99067.41;;;-4.20;96.38
69842;BME280;57138;51.326;-0.068;2022-12-11T02:50:52;99054.13;;;-4.28;95.81
69842;BME280;57138;51.326;-0.068;2022-12-11T02:53:24;99059.00;;;-4.23;96.08
69842;BME280;57138;51.326;-0.068;2022-12-11T02:55:55;99084.81;;;-4.09;95.83
69842;BME280;57138;51.326;-0.068;2022-12-11T02:58:28;99058.63;;;-4.19;96.76
69842;BME280;57138;51.326;-0.068;2022-12-11T03:00:55;99071.06;;;-4.11;95.50
69842;BME280;57138;51.326;-0.068;2022-12-11T03:03:20;99067.97;;;-4.16;96.18
69842;BME280;57138;51.326;-0.068;2022-12-11T03:05:47;99015.84;;;-4.39;96.47
69842;BME280;57138;51.326;-0.068;2022-12-11T03:08:12;99058.94;;;-4.12;96.78
69842;BME280;57138;51.326;-0.068;2022-12-11T03:10:41;99053.41;;;-4.19;95.95
69842;BME280;57138;51.326;-0.068;2022-12-11T03:13:07;99045.22;;;-4.14;96.86
69842;BME280;57138;51.326;-0.068;2022-12-11T03:18:40;99041.13;;;-4.07;96.51
69842;BME280;57138;51.326;-0.068;2022-12-11T03:21:14;99049.94;;;-4.08;96.35
69842;BME280;57138;51.326;-0.068;2022-12-11T03:26:12;99039.75;;;-4.11;96.20
69842;BME280;57138;51.326;-0.068;2022-12-11T03:28:44;98997.47;;;-4.37;96.25
69842;BME280;57138;51.326;-0.068;2022-12-11T03:31:29;99024.31;;;-4.14;96.92
69842;BME280;57138;51.326;-0.068;2022-12-11T03:34:00;98971.53;;;-4.50;95.95
69842;BME280;57138;51.326;-0.068;2022-12-11T03:36:33;99011.31;;;-4.25;96.69
69842;BME280;57138;51.326;-0.068;2022-12-11T03:39:09;99020.41;;;-4.20;96.21
69842;BME280;57138;51.326;-0.068;2022-12-11T03:41:36;99016.28;;;-4.22;96.26
69842;BME280;57138;51.326;-0.068;2022-12-11T03:44:04;98983.25;;;-4.44;96.35
69842;BME280;57138;51.326;-0.068;2022-12-11T03:46:32;98997.22;;;-4.34;96.42
69842;BME280;57138;51.326;-0.068;2022-12-11T03:49:06;99010.34;;;-4.24;96.17
69842;BME280;57138;51.326;-0.068;2022-12-11T03:51:34;99001.63;;;-4.35;96.40
69842;BME280;57138;51.326;-0.068;2022-12-11T03:54:00;99009.19;;;-4.31;95.98
69842;BME280;57138;51.326;-0.068;2022-12-11T03:56:27;99000.69;;;-4.45;95.79
69842;BME280;57138;51.326;-0.068;2022-12-11T03:58:54;99019.16;;;-4.37;95.69
69842;BME280;57138;51.326;-0.068;2022-12-11T04:01:20;99026.88;;;-4.35;95.97
69842;BME280;57138;51.326;-0.068;2022-12-11T04:03:45;99008.06;;;-4.50;95.45
69842;BME280;57138;51.326;-0.068;2022-12-11T04:06:10;98999.75;;;-4.55;95.89
69842;BME280;57138;51.326;-0.068;2022-12-11T04:08:36;99024.16;;;-4.45;96.13
69842;BME280;57138;51.326;-0.068;2022-12-11T04:11:03;99040.75;;;-4.35;95.84
69842;BME280;57138;51.326;-0.068;2022-12-11T04:13:47;99041.69;;;-4.36;95.95
69842;BME280;57138;51.326;-0.068;2022-12-11T04:16:32;99040.88;;;-4.36;96.64
69842;BME280;57138;51.326;-0.068;2022-12-11T04:18:58;99014.22;;;-4.51;96.18
69842;BME280;57138;51.326;-0.068;2022-12-11T04:21:42;99021.56;;;-4.45;96.13
69842;BME280;57138;51.326;-0.068;2022-12-11T04:24:26;99027.22;;;-4.40;95.62
69842;BME280;57138;51.326;-0.068;2022-12-11T04:26:51;99016.09;;;-4.42;96.24
69842;BME280;57138;51.326;-0.068;2022-12-11T04:29:16;98984.09;;;-4.55;95.50
69842;BME280;57138;51.326;-0.068;2022-12-11T04:31:42;99002.00;;;-4.51;96.65
69842;BME280;57138;51.326;-0.068;2022-12-11T04:34:07;99007.56;;;-4.44;96.34
69842;BME280;57138;51.326;-0.068;2022-12-11T04:36:33;99005.41;;;-4.39;96.46
69842;BME280;57138;51.326;-0.068;2022-12-11T04:38:58;98998.78;;;-4.43;96.62
69842;BME280;57138;51.326;-0.068;2022-12-11T04:41:24;98992.63;;;-4.42;96.35
69842;BME280;57138;51.326;-0.068;2022-12-11T04:43:49;98991.91;;;-4.44;96.24
69842;BME280;57138;51.326;-0.068;2022-12-11T04:46:19;99007.09;;;-4.38;96.00
69842;BME280;57138;51.326;-0.068;2022-12-11T04:48:46;98982.22;;;-4.53;96.09
69842;BME280;57138;51.326;-0.068;2022-12-11T04:51:12;98990.25;;;-4.45;95.85
69842;BME280;57138;51.326;-0.068;2022-12-11T04:53:39;99001.88;;;-4.38;96.56
69842;BME280;57138;51.326;-0.068;2022-12-11T04:56:06;98996.66;;;-4.38;96.90
69842;BME280;57138;51.326;-0.068;2022-12-11T04:58:32;98996.66;;;-4.38;96.26
69842;BME280;57138;51.326;-0.068;2022-12-11T05:00:57;98981.00;;;-4.49;95.64
69842;BME280;57138;51.326;-0.068;2022-12-11T05:03:23;98994.28;;;-4.41;96.55
69842;BME280;57138;51.326;-0.068;2022-12-11T05:05:52;98981.47;;;-4.44;96.08
69842;BME280;57138;51.326;-0.068;2022-12-11T05:08:19;98979.81;;;-4.45;96.54
69842;BME280;57138;51.326;-0.068;2022-12-11T05:10:54;98974.03;;;-4.48;96.34
69842;BME280;57138;51.326;-0.068;2022-12-11T05:13:19;98975.78;;;-4.49;96.26
69842;BME280;57138;51.326;-0.068;2022-12-11T05:15:44;98959.22;;;-4.59;96.44
69842;BME280;57138;51.326;-0.068;2022-12-11T05:18:10;98964.91;;;-4.54;95.84
69842;BME280;57138;51.326;-0.068;2022-12-11T05:20:35;98940.03;;;-4.70;95.98
69842;BME280;57138;51.326;-0.068;2022-12-11T05:23:00;98972.47;;;-4.51;96.56
69842;BME280;57138;51.326;-0.068;2022-12-11T05:25:26;98988.34;;;-4.43;96.18
69842;BME280;57138;51.326;-0.068;2022-12-11T05:27:51;98974.63;;;-4.56;95.97
69842;BME280;57138;51.326;-0.068;2022-12-11T05:30:17;98984.22;;;-4.45;96.55
69842;BME280;57138;51.326;-0.068;2022-12-11T05:32:42;98955.44;;;-4.66;96.31
69842;BME280;57138;51.326;-0.068;2022-12-11T05:35:12;98960.88;;;-4.58;95.96
69842;BME280;57138;51.326;-0.068;2022-12-11T05:37:39;98969.53;;;-4.58;96.36
69842;BME280;57138;51.326;-0.068;2022-12-11T05:40:05;98937.91;;;-4.76;96.52
69842;BME280;57138;51.326;-0.068;2022-12-11T05:42:32;98969.06;;;-4.52;96.75
69842;BME280;57138;51.326;-0.068;2022-12-11T05:44:58;98980.06;;;-4.48;96.50
69842;BME280;57138;51.326;-0.068;2022-12-11T05:47:23;98974.84;;;-4.48;96.36
69842;BME280;57138;51.326;-0.068;2022-12-11T05:49:50;98977.56;;;-4.49;95.45
69842;BME280;57138;51.326;-0.068;2022-12-11T05:52:15;98972.97;;;-4.57;95.84
69842;BME280;57138;51.326;-0.068;2022-12-11T05:54:41;98958.75;;;-4.64;96.45
69842;BME280;57138;51.326;-0.068;2022-12-11T05:57:06;98944.44;;;-4.70;95.75
69842;BME280;57138;51.326;-0.068;2022-12-11T05:59:32;98963.03;;;-4.63;96.76
69842;BME280;57138;51.326;-0.068;2022-12-11T06:01:57;98966.09;;;-4.58;95.82
69842;BME280;57138;51.326;-0.068;2022-12-11T06:04:22;98919.59;;;-4.85;96.17
69842;BME280;57138;51.326;-0.068;2022-12-11T06:06:48;98977.00;;;-4.53;96.46
69842;BME280;57138;51.326;-0.068;2022-12-11T06:09:15;98963.03;;;-4.63;95.39
69842;BME280;57138;51.326;-0.068;2022-12-11T06:11:40;98944.94;;;-4.76;95.63
69842;BME280;57138;51.326;-0.068;2022-12-11T06:14:07;98957.81;;;-4.63;96.68
69842;BME280;57138;51.326;-0.068;2022-12-11T06:16:33;98966.31;;;-4.61;95.91
69842;BME280;57138;51.326;-0.068;2022-12-11T06:18:59;98938.78;;;-4.75;95.44
69842;BME280;57138;51.326;-0.068;2022-12-11T06:21:27;98967.06;;;-4.59;96.62
69842;BME280;57138;51.326;-0.068;2022-12-11T06:23:54;98981.03;;;-4.60;95.44
69842;BME280;57138;51.326;-0.068;2022-12-11T06:26:21;98970.84;;;-4.63;95.70
69842;BME280;57138;51.326;-0.068;2022-12-11T06:28:47;98942.69;;;-4.81;96.08
69842;BME280;57138;51.326;-0.068;2022-12-11T06:31:13;98939.13;;;-4.80;95.69
69842;BME280;57138;51.326;-0.068;2022-12-11T06:33:39;98960.66;;;-4.66;95.78
69842;BME280;57138;51.326;-0.068;2022-12-11T06:36:06;98957.94;;;-4.65;95.63
69842;BME280;57138;51.326;-0.068;2022-12-11T06:38:32;98945.81;;;-4.66;96.56
69842;BME280;57138;51.326;-0.068;2022-12-11T06:40:59;98955.78;;;-4.60;96.43
69842;BME280;57138;51.326;-0.068;2022-12-11T06:43:25;98945.72;;;-4.64;96.18
69842;BME280;57138;51.326;-0.068;2022-12-11T06:45:51;98953.66;;;-4.55;96.58
69842;BME280;57138;51.326;-0.068;2022-12-11T06:48:17;98948.31;;;-4.64;96.85
69842;BME280;57138;51.326;-0.068;2022-12-11T06:50:42;98962.88;;;-4.51;96.55
69842;BME280;57138;51.326;-0.068;2022-12-11T06:53:10;98932.34;;;-4.71;96.89
69842;BME280;57138;51.326;-0.068;2022-12-11T06:55:36;98938.97;;;-4.67;96.30
69842;BME280;57138;51.326;-0.068;2022-12-11T06:58:03;98951.41;;;-4.59;96.42
69842;BME280;57138;51.326;-0.068;2022-12-11T07:00:28;98944.06;;;-4.65;96.29
69842;BME280;57138;51.326;-0.068;2022-12-11T07:02:54;98965.03;;;-4.56;95.93
69842;BME280;57138;51.326;-0.068;2022-12-11T07:05:19;98942.41;;;-4.66;96.09
69842;BME280;57138;51.326;-0.068;2022-12-11T07:07:45;98955.66;;;-4.58;95.86
69842;BME280;57138;51.326;-0.068;2022-12-11T07:10:11;98951.66;;;-4.62;96.06
69842;BME280;57138;51.326;-0.068;2022-12-11T07:12:36;98950.56;;;-4.60;95.82
69842;BME280;57138;51.326;-0.068;2022-12-11T07:15:03;98937.78;;;-4.74;96.12
69842;BME280;57138;51.326;-0.068;2022-12-11T07:17:30;98955.91;;;-4.61;96.38
69842;BME280;57138;51.326;-0.068;2022-12-11T07:19:56;98941.72;;;-4.68;95.67
69842;BME280;57138;51.326;-0.068;2022-12-11T07:22:21;98926.22;;;-4.81;95.87
69842;BME280;57138;51.326;-0.068;2022-12-11T07:24:47;98952.97;;;-4.68;94.97
69842;BME280;57138;51.326;-0.068;2022-12-11T07:27:12;98949.06;;;-4.74;95.61
69842;BME280;57138;51.326;-0.068;2022-12-11T07:29:37;98952.50;;;-4.73;95.44
69842;BME280;57138;51.326;-0.068;2022-12-11T07:32:03;98950.97;;;-4.76;95.95
69842;BME280;57138;51.326;-0.068;2022-12-11T07:34:28;98954.53;;;-4.77;96.32
69842;BME280;57138;51.326;-0.068;2022-12-11T07:36:54;98955.94;;;-4.73;95.55
69842;BME280;57138;51.326;-0.068;2022-12-11T07:39:19;98946.59;;;-4.75;95.23
69842;BME280;57138;51.326;-0.068;2022-12-11T07:41:45;98922.56;;;-4.90;95.56
69842;BME280;57138;51.326;-0.068;2022-12-11T07:44:11;98945.28;;;-4.81;95.35
69842;BME280;57138;51.326;-0.068;2022-12-11T07:46:38;98954.53;;;-4.77;95.27
69842;BME280;57138;51.326;-0.068;2022-12-11T07:49:04;98946.34;;;-4.83;95.87
69842;BME280;57138;51.326;-0.068;2022-12-11T07:51:32;98946.84;;;-4.78;95.53
69842;BME280;57138;51.326;-0.068;2022-12-11T07:54:19;98957.25;;;-4.78;95.90
69842;BME280;57138;51.326;-0.068;2022-12-11T07:56:46;98957.16;;;-4.77;95.65
69842;BME280;57138;51.326;-0.068;2022-12-11T07:59:12;98962.25;;;-4.75;95.42
69842;BME280;57138;51.326;-0.068;2022-12-11T08:01:38;98963.06;;;-4.75;95.99
69842;BME280;57138;51.326;-0.068;2022-12-11T08:04:06;98878.41;;;-5.26;96.20
69842;BME280;57138;51.326;-0.068;2022-12-11T08:06:34;98894.88;;;-5.14;95.50
69842;BME280;57138;51.326;-0.068;2022-12-11T08:09:02;98967.19;;;-4.72;96.09
69842;BME280;57138;51.326;-0.068;2022-12-11T08:11:27;98964.69;;;-4.74;95.97
69842;BME280;57138;51.326;-0.068;2022-12-11T08:13:53;98942.09;;;-4.84;96.32
69842;BME280;57138;51.326;-0.068;2022-12-11T08:16:19;98960.91;;;-4.70;95.54
69842;BME280;57138;51.326;-0.068;2022-12-11T08:18:46;98947.41;;;-4.75;95.32
69842;BME280;57138;51.326;-0.068;2022-12-11T08:21:17;98942.19;;;-4.75;95.53
69842;BME280;57138;51.326;-0.068;2022-12-11T08:23:43;98927.97;;;-4.82;95.67
69842;BME280;57138;51.326;-0.068;2022-12-11T08:26:22;98952.72;;;-4.65;95.75
69842;BME280;57138;51.326;-0.068;2022-12-11T08:28:47;98956.75;;;-4.61;95.45
69842;BME280;57138;51.326;-0.068;2022-12-11T08:31:15;98958.50;;;-4.61;95.65
69842;BME280;57138;51.326;-0.068;2022-12-11T08:33:41;98958.75;;;-4.64;96.03
69842;BME280;57138;51.326;-0.068;2022-12-11T08:36:10;98961.84;;;-4.59;95.78
69842;BME280;57138;51.326;-0.068;2022-12-11T08:38:36;98962.53;;;-4.57;95.70
69842;BME280;57138;51.326;-0.068;2022-12-11T08:41:15;98967.63;;;-4.56;96.36
69842;BME280;57138;51.326;-0.068;2022-12-11T08:43:41;98969.28;;;-4.55;95.62
69842;BME280;57138;51.326;-0.068;2022-12-11T08:46:08;98958.75;;;-4.64;96.40
69842;BME280;57138;51.326;-0.068;2022-12-11T08:48:34;98971.19;;;-4.57;96.26
69842;BME280;57138;51.326;-0.068;2022-12-11T08:51:01;98978.63;;;-4.52;96.25
69842;BME280;57138;51.326;-0.068;2022-12-11T08:53:31;98955.06;;;-4.62;95.58
69842;BME280;57138;51.326;-0.068;2022-12-11T08:56:04;98971.53;;;-4.50;96.10
69842;BME280;57138;51.326;-0.068;2022-12-11T08:58:30;98969.88;;;-4.51;95.41
69842;BME280;57138;51.326;-0.068;2022-12-11T09:00:55;98973.78;;;-4.45;96.35
69842;BME280;57138;51.326;-0.068;2022-12-11T09:03:21;98949.38;;;-4.56;96.29
69842;BME280;57138;51.326;-0.068;2022-12-11T09:05:46;98970.69;;;-4.39;96.14
69842;BME280;57138;51.326;-0.068;2022-12-11T09:08:12;98961.75;;;-4.37;96.62
69842;BME280;57138;51.326;-0.068;2022-12-11T09:10:37;98961.25;;;-4.30;96.22
69842;BME280;57138;51.326;-0.068;2022-12-11T09:13:03;98957.25;;;-4.35;95.89
69842;BME280;57138;51.326;-0.068;2022-12-11T09:15:28;98940.63;;;-4.34;95.95
69842;BME280;57138;51.326;-0.068;2022-12-11T09:17:54;98965.22;;;-4.15;97.52
69842;BME280;57138;51.326;-0.068;2022-12-11T09:20:19;98955.22;;;-4.10;96.47
69842;BME280;57138;51.326;-0.068;2022-12-11T09:22:45;98937.59;;;-4.18;96.81
69842;BME280;57138;51.326;-0.068;2022-12-11T09:25:10;98950.47;;;-4.05;96.52
69842;BME280;57138;51.326;-0.068;2022-12-11T09:27:35;98903.84;;;-4.30;97.32
69842;BME280;57138;51.326;-0.068;2022-12-11T09:30:01;98956.19;;;-3.90;96.12
69842;BME280;57138;51.326;-0.068;2022-12-11T09:32:26;98924.38;;;-4.05;96.70
69842;BME280;57138;51.326;-0.068;2022-12-11T09:34:52;98957.34;;;-3.83;96.66
69842;BME280;57138;51.326;-0.068;2022-12-11T09:37:17;98958.91;;;-3.80;97.04
69842;BME280;57138;51.326;-0.068;2022-12-11T09:39:42;98955.50;;;-3.71;96.54
69842;BME280;57138;51.326;-0.068;2022-12-11T09:44:57;98947.72;;;-3.61;96.46
69842;BME280;57138;51.326;-0.068;2022-12-11T09:47:40;98949.38;;;-3.60;96.66
69842;BME280;57138;51.326;-0.068;2022-12-11T09:53:06;98948.31;;;-3.48;97.14
69842;BME280;57138;51.326;-0.068;2022-12-11T09:55:59;98947.81;;;-3.41;97.01
69842;BME280;57138;51.326;-0.068;2022-12-11T10:01:23;98959.16;;;-3.31;96.49
69842;BME280;57138;51.326;-0.068;2022-12-11T10:04:03;98924.94;;;-3.49;96.44
69842;BME280;57138;51.326;-0.068;2022-12-11T10:06:44;98940.16;;;-3.33;96.54
69842;BME280;57138;51.326;-0.068;2022-12-11T10:09:18;98963.47;;;-3.20;96.68
69842;BME280;57138;51.326;-0.068;2022-12-11T10:12:06;98948.16;;;-3.25;97.15
69842;BME280;57138;51.326;-0.068;2022-12-11T10:14:46;98954.41;;;-3.16;96.92
69842;BME280;57138;51.326;-0.068;2022-12-11T10:17:46;98938.00;;;-3.18;96.87
69842;BME280;57138;51.326;-0.068;2022-12-11T10:20:22;98950.56;;;-3.12;96.42
69842;BME280;57138;51.326;-0.068;2022-12-11T10:22:49;98936.25;;;-3.18;96.57
69842;BME280;57138;51.326;-0.068;2022-12-11T10:25:26;98956.47;;;-3.10;96.58
69842;BME280;57138;51.326;-0.068;2022-12-11T10:27:54;98934.69;;;-3.20;96.83
69842;BME280;57138;51.326;-0.068;2022-12-11T10:30:42;98933.63;;;-3.18;96.19
69842;BME280;57138;51.326;-0.068;2022-12-11T10:38:14;98938.28;;;-3.12;97.43
69842;BME280;57138;51.326;-0.068;2022-12-11T10:40:44;98919.28;;;-3.23;97.18
69842;BME280;57138;51.326;-0.068;2022-12-11T10:43:11;98920.94;;;-3.22;97.17
69842;BME280;57138;51.326;-0.068;2022-12-11T10:45:36;98922.31;;;-3.18;96.97
69842;BME280;57138;51.326;-0.068;2022-12-11T10:48:09;98947.13;;;-3.03;96.72
69842;BME280;57138;51.326;-0.068;2022-12-11T10:50:36;98945.47;;;-3.04;96.74
69842;BME280;57138;51.326;-0.068;2022-12-11T10:53:02;98941.38;;;-2.97;97.32
69842;BME280;57138;51.326;-0.068;2022-12-11T10:55:36;98927.91;;;-2.92;97.02
69842;BME280;57138;51.326;-0.068;2022-12-11T10:58:04;98944.84;;;-2.86;97.17
69842;BME280;57138;51.326;-0.068;2022-12-11T11:02:57;98915.50;;;-2.90;97.31
69842;BME280;57138;51.326;-0.068;2022-12-11T11:05:29;98928.63;;;-2.71;97.61
69842;BME280;57138;51.326;-0.068;2022-12-11T11:08:27;98917.75;;;-2.76;97.24
69842;BME280;57138;51.326;-0.068;2022-12-11T11:11:01;98892.97;;;-2.81;97.72
69842;BME280;57138;51.326;-0.068;2022-12-11T11:13:29;98925.34;;;-2.53;97.55
69842;BME280;57138;51.326;-0.068;2022-12-11T11:16:07;98896.03;;;-2.66;96.83
69842;BME280;57138;51.326;-0.068;2022-12-11T11:18:36;98904.28;;;-2.51;97.44
69842;BME280;57138;51.326;-0.068;2022-12-11T11:21:04;98901.50;;;-2.50;97.67
69842;BME280;57138;51.326;-0.068;2022-12-11T11:23:30;98888.56;;;-2.51;97.09
69842;BME280;57138;51.326;-0.068;2022-12-11T11:25:58;98895.59;;;-2.42;97.26
69842;BME280;57138;51.326;-0.068;2022-12-11T11:28:34;98890.22;;;-2.41;96.94
69842;BME280;57138;51.326;-0.068;2022-12-11T11:31:08;98870.25;;;-2.51;97.76
69842;BME280;57138;51.326;-0.068;2022-12-11T11:33:49;98890.09;;;-2.39;96.94
69842;BME280;57138;51.326;-0.068;2022-12-11T11:36:25;98910.75;;;-2.26;96.77
69842;BME280;57138;51.326;-0.068;2022-12-11T11:41:59;98902.34;;;-2.30;96.85
69842;BME280;57138;51.326;-0.068;2022-12-11T11:44:36;98898.78;;;-2.29;97.38
69842;BME280;57138;51.326;-0.068;2022-12-11T11:47:26;98903.03;;;-2.28;96.54
69842;BME280;57138;51.326;-0.068;2022-12-11T11:49:59;98907.31;;;-2.27;97.37
69842;BME280;57138;51.326;-0.068;2022-12-11T11:52:52;98908.97;;;-2.26;96.96
69842;BME280;57138;51.326;-0.068;2022-12-11T11:55:48;98893.38;;;-2.37;97.43
69842;BME280;57138;51.326;-0.068;2022-12-11T11:58:20;98901.53;;;-2.30;96.68
69842;BME280;57138;51.326;-0.068;2022-12-11T12:00:52;98835.97;;;-2.68;96.46
69842;BME280;57138;51.326;-0.068;2022-12-11T12:03:18;98876.31;;;-2.41;96.58
69842;BME280;57138;51.326;-0.068;2022-12-11T12:13:27;98888.56;;;-2.22;97.64
69842;BME280;57138;51.326;-0.068;2022-12-11T12:15:57;98869.84;;;-2.27;97.53
69842;BME280;57138;51.326;-0.068;2022-12-11T12:21:44;98865.28;;;-2.25;97.82
69842;BME280;57138;51.326;-0.068;2022-12-11T12:32:27;98876.72;;;-2.17;97.19
69842;BME280;57138;51.326;-0.068;2022-12-11T12:38:20;98858.41;;;-2.36;96.96
69842;BME280;57138;51.326;-0.068;2022-12-11T12:43:47;98884.13;;;-2.22;97.03
69842;BME280;57138;51.326;-0.068;2022-12-11T12:48:48;98839.53;;;-2.49;97.32
69842;BME280;57138;51.326;-0.068;2022-12-11T12:51:28;98877.28;;;-2.23;97.24
69842;BME280;57138;51.326;-0.068;2022-12-11T12:54:00;98859.06;;;-2.34;97.37
69842;BME280;57138;51.326;-0.068;2022-12-11T12:56:31;98859.34;;;-2.37;97.10
69842;BME280;57138;51.326;-0.068;2022-12-11T12:58:58;98862.69;;;-2.35;97.26
69842;BME280;57138;51.326;-0.068;2022-12-11T13:01:28;98869.00;;;-2.28;97.81
69842;BME280;57138;51.326;-0.068;2022-12-11T13:04:01;98832.50;;;-2.49;97.66
69842;BME280;57138;51.326;-0.068;2022-12-11T13:06:48;98857.44;;;-2.35;97.74
69842;BME280;57138;51.326;-0.068;2022-12-11T13:09:20;98864.75;;;-2.29;97.54
69842;BME280;57138;51.326;-0.068;2022-12-11T13:11:49;98860.31;;;-2.28;98.01
69842;BME280;57138;51.326;-0.068;2022-12-11T13:16:47;98864.19;;;-2.23;98.06
69842;BME280;57138;51.326;-0.068;2022-12-11T13:25:01;98869.81;;;-2.18;98.02
69842;BME280;57138;51.326;-0.068;2022-12-11T13:27:38;98830.84;;;-2.40;98.36
69842;BME280;57138;51.326;-0.068;2022-12-11T13:33:00;98845.84;;;-2.23;98.47
69842;BME280;57138;51.326;-0.068;2022-12-11T13:35:27;98852.72;;;-2.22;98.18
69842;BME280;57138;51.326;-0.068;2022-12-11T13:38:05;98860.72;;;-2.13;97.96
69842;BME280;57138;51.326;-0.068;2022-12-11T13:40:40;98859.88;;;-2.14;97.99
69842;BME280;57138;51.326;-0.068;2022-12-11T13:43:16;98840.63;;;-2.23;98.49
69842;BME280;57138;51.326;-0.068;2022-12-11T13:48:23;98863.34;;;-2.13;97.63
69842;BME280;57138;51.326;-0.068;2022-12-11T13:50:52;98861.97;;;-2.18;98.06
69842;BME280;57138;51.326;-0.068;2022-12-11T13:53:20;98862.66;;;-2.25;97.85
69842;BME280;57138;51.326;-0.068;2022-12-11T13:56:28;98865.41;;;-2.27;97.87
69842;BME280;57138;51.326;-0.068;2022-12-11T13:58:55;98866.50;;;-2.29;97.75
69842;BME280;57138;51.326;-0.068;2022-12-11T14:01:23;98832.78;;;-2.52;98.14
69842;BME280;57138;51.326;-0.068;2022-12-11T14:04:10;98864.31;;;-2.34;97.88
69842;BME280;57138;51.326;-0.068;2022-12-11T14:06:38;98862.69;;;-2.35;98.10
69842;BME280;57138;51.326;-0.068;2022-12-11T14:09:05;98851.38;;;-2.45;98.59
69842;BME280;57138;51.326;-0.068;2022-12-11T14:11:37;98858.13;;;-2.43;98.71
69842;BME280;57138;51.326;-0.068;2022-12-11T14:14:14;98861.84;;;-2.36;97.96
69842;BME280;57138;51.326;-0.068;2022-12-11T14:16:41;98866.25;;;-2.36;98.74
69842;BME280;57138;51.326;-0.068;2022-12-11T14:19:07;98845.03;;;-2.53;98.13
69842;BME280;57138;51.326;-0.068;2022-12-11T14:21:35;98866.25;;;-2.36;98.29
69842;BME280;57138;51.326;-0.068;2022-12-11T14:24:02;98846.16;;;-2.45;98.82